createdAt,value
2022-12-01T00:00:06.996Z,25.29
2022-12-01T00:00:16.812Z,25.28
2022-12-01T00:00:26.813Z,25.29
2022-12-01T00:00:37.313Z,25.27
2022-12-01T00:00:46.812Z,25.27
2022-12-01T00:00:58.771Z,25.28
2022-12-01T00:01:08.763Z,25.32
2022-12-01T00:01:16.853Z,25.31
2022-12-01T00:01:28.761Z,25.28
2022-12-01T00:01:37.163Z,25.37
2022-12-01T00:01:46.959Z,25.31
2022-12-01T00:01:56.927Z,25.31
2022-12-01T00:02:06.908Z,25.29
2022-12-01T00:02:16.895Z,25.28
2022-12-01T00:02:27.009Z,25.30
2022-12-01T00:02:36.902Z,25.27
2022-12-01T00:02:46.916Z,25.25
2022-12-01T00:02:56.931Z,25.27
2022-12-01T00:03:06.955Z,25.28
2022-12-01T00:03:16.877Z,25.29
2022-12-01T00:03:26.883Z,25.27
2022-12-01T00:03:36.794Z,25.27
2022-12-01T00:03:46.804Z,25.30
2022-12-01T00:03:56.802Z,25.27
2022-12-01T00:04:06.801Z,25.28
2022-12-01T00:04:16.793Z,25.26
2022-12-01T00:04:26.802Z,25.25
2022-12-01T00:04:36.794Z,25.23
2022-12-01T00:04:46.794Z,25.24
2022-12-01T00:04:56.795Z,25.25
2022-12-01T00:05:06.798Z,25.23
2022-12-01T00:05:16.823Z,25.28
2022-12-01T00:05:26.793Z,25.29
2022-12-01T00:05:36.794Z,25.30
2022-12-01T00:05:46.794Z,25.27
2022-12-01T00:05:56.794Z,25.28
2022-12-01T00:06:06.795Z,25.27
2022-12-01T00:06:16.817Z,25.27
2022-12-01T00:06:28.233Z,25.25
2022-12-01T00:06:36.787Z,25.28
2022-12-01T00:06:46.794Z,25.21
2022-12-01T00:06:56.805Z,25.22
2022-12-01T00:07:06.784Z,25.22
2022-12-01T00:07:16.787Z,25.23
2022-12-01T00:07:26.841Z,25.22
2022-12-01T00:07:36.802Z,25.21
2022-12-01T00:07:46.841Z,25.24
2022-12-01T00:07:56.811Z,25.23
2022-12-01T00:08:06.851Z,25.22
2022-12-01T00:08:16.785Z,25.20
2022-12-01T00:08:26.789Z,25.21
2022-12-01T00:08:36.785Z,25.19
2022-12-01T00:08:46.788Z,25.21
2022-12-01T00:08:56.784Z,25.24
2022-12-01T00:09:06.788Z,25.23
2022-12-01T00:09:20.032Z,25.25
2022-12-01T00:09:26.785Z,25.37
2022-12-01T00:09:36.775Z,25.32
2022-12-01T00:09:47.008Z,25.27
2022-12-01T00:09:56.775Z,25.24
2022-12-01T00:10:06.785Z,25.20
2022-12-01T00:10:16.778Z,25.19
2022-12-01T00:10:27.115Z,25.22
2022-12-01T00:10:38.715Z,25.21
2022-12-01T00:10:48.714Z,25.26
2022-12-01T00:10:56.786Z,25.25
2022-12-01T00:11:06.775Z,25.19
2022-12-01T00:11:16.786Z,25.22
2022-12-01T00:11:28.215Z,25.26
2022-12-01T00:11:36.776Z,25.30
2022-12-01T00:11:46.775Z,25.24
2022-12-01T00:11:56.775Z,25.24
2022-12-01T00:12:06.810Z,25.24
2022-12-01T00:12:16.765Z,25.26
2022-12-01T00:12:26.766Z,25.26
2022-12-01T00:12:36.767Z,25.28
2022-12-01T00:12:46.767Z,25.27
2022-12-01T00:12:56.767Z,25.27
2022-12-01T00:13:06.765Z,25.27
2022-12-01T00:13:16.767Z,25.25
2022-12-01T00:13:26.766Z,25.28
2022-12-01T00:13:36.769Z,25.26
2022-12-01T00:13:46.767Z,25.28
2022-12-01T00:13:56.766Z,25.23
2022-12-01T00:14:06.768Z,25.24
2022-12-01T00:14:16.768Z,25.23
2022-12-01T00:14:26.769Z,25.20
2022-12-01T00:14:36.758Z,25.19
2022-12-01T00:14:46.759Z,25.14
2022-12-01T00:14:56.765Z,25.12
2022-12-01T00:15:06.768Z,25.13
2022-12-01T00:15:16.759Z,25.10
2022-12-01T00:15:26.756Z,25.12
2022-12-01T00:15:36.865Z,25.08
2022-12-01T00:15:46.768Z,25.07
2022-12-01T00:15:56.758Z,25.03
2022-12-01T00:16:06.830Z,25.03
2022-12-01T00:16:16.991Z,25.05
2022-12-01T00:16:26.793Z,25.06
2022-12-01T00:16:36.782Z,25.03
2022-12-01T00:16:46.795Z,25.05
2022-12-01T00:16:56.795Z,25.09
2022-12-01T00:17:06.762Z,25.13
2022-12-01T00:17:16.789Z,25.17
2022-12-01T00:17:26.758Z,25.24
2022-12-01T00:17:36.758Z,25.31
2022-12-01T00:17:46.759Z,25.37
2022-12-01T00:17:56.758Z,25.40
2022-12-01T00:18:06.747Z,25.41
2022-12-01T00:18:16.760Z,25.41
2022-12-01T00:18:26.758Z,25.40
2022-12-01T00:18:36.755Z,25.41
2022-12-01T00:18:46.750Z,25.41
2022-12-01T00:18:56.759Z,25.41
2022-12-01T00:19:06.749Z,25.42
2022-12-01T00:19:16.748Z,25.39
2022-12-01T00:19:26.749Z,25.36
2022-12-01T00:19:36.762Z,25.36
2022-12-01T00:19:47.029Z,25.33
2022-12-01T00:19:56.737Z,25.35
2022-12-01T00:20:06.750Z,25.31
2022-12-01T00:20:16.750Z,25.31
2022-12-01T00:20:26.751Z,25.35
2022-12-01T00:20:38.189Z,25.35
2022-12-01T00:20:46.759Z,25.42
2022-12-01T00:20:56.748Z,25.37
2022-12-01T00:21:06.739Z,25.38
2022-12-01T00:21:16.751Z,25.41
2022-12-01T00:21:26.741Z,25.39
2022-12-01T00:21:36.752Z,25.40
2022-12-01T00:21:46.749Z,25.41
2022-12-01T00:21:56.749Z,25.38
2022-12-01T00:22:06.739Z,25.39
2022-12-01T00:22:16.739Z,25.41
2022-12-01T00:22:26.760Z,25.42
2022-12-01T00:22:36.739Z,25.41
2022-12-01T00:22:46.740Z,25.40
2022-12-01T00:22:56.730Z,25.39
2022-12-01T00:23:06.739Z,25.38
2022-12-01T00:23:16.739Z,25.36
2022-12-01T00:23:26.730Z,25.35
2022-12-01T00:23:36.742Z,25.38
2022-12-01T00:23:46.738Z,25.36
2022-12-01T00:23:56.747Z,25.36
2022-12-01T00:24:06.729Z,25.38
2022-12-01T00:24:16.730Z,25.39
2022-12-01T00:24:26.739Z,25.42
2022-12-01T00:24:36.730Z,25.41
2022-12-01T00:24:46.736Z,25.40
2022-12-01T00:24:56.735Z,25.38
2022-12-01T00:25:06.730Z,25.35
2022-12-01T00:25:16.730Z,25.37
2022-12-01T00:25:26.730Z,25.36
2022-12-01T00:25:36.730Z,25.37
2022-12-01T00:25:46.720Z,25.34
2022-12-01T00:25:56.740Z,25.37
2022-12-01T00:26:06.722Z,25.38
2022-12-01T00:26:16.719Z,25.38
2022-12-01T00:26:26.739Z,25.39
2022-12-01T00:26:36.720Z,25.37
2022-12-01T00:26:46.722Z,25.39
2022-12-01T00:26:56.719Z,25.37
2022-12-01T00:27:06.720Z,25.41
2022-12-01T00:27:16.712Z,25.38
2022-12-01T00:27:26.722Z,25.40
2022-12-01T00:27:36.740Z,25.40
2022-12-01T00:27:46.721Z,25.43
2022-12-01T00:27:56.791Z,25.46
2022-12-01T00:28:06.712Z,25.47
2022-12-01T00:28:16.712Z,25.47
2022-12-01T00:28:26.710Z,25.47
2022-12-01T00:28:36.711Z,25.48
2022-12-01T00:28:46.711Z,25.50
2022-12-01T00:28:56.714Z,25.50
2022-12-01T00:29:06.714Z,25.51
2022-12-01T00:29:16.716Z,25.49
2022-12-01T00:29:26.712Z,25.50
2022-12-01T00:29:36.721Z,25.48
2022-12-01T00:29:47.026Z,25.48
2022-12-01T00:29:56.701Z,25.50
2022-12-01T00:30:06.702Z,25.47
2022-12-01T00:30:16.711Z,25.47
2022-12-01T00:30:26.711Z,25.45
2022-12-01T00:30:38.150Z,25.46
2022-12-01T00:30:46.714Z,25.49
2022-12-01T00:30:56.714Z,25.46
2022-12-01T00:31:06.732Z,25.50
2022-12-01T00:31:16.745Z,25.53
2022-12-01T00:31:26.749Z,25.54
2022-12-01T00:31:36.782Z,25.54
2022-12-01T00:31:46.731Z,25.56
2022-12-01T00:31:56.778Z,25.57
2022-12-01T00:32:06.748Z,25.58
2022-12-01T00:32:16.718Z,25.55
2022-12-01T00:32:26.702Z,25.57
2022-12-01T00:32:36.702Z,25.59
2022-12-01T00:32:46.723Z,25.58
2022-12-01T00:32:56.692Z,25.55
2022-12-01T00:33:06.704Z,25.54
2022-12-01T00:33:16.693Z,25.54
2022-12-01T00:33:26.693Z,25.55
2022-12-01T00:33:36.696Z,25.54
2022-12-01T00:33:46.694Z,25.53
2022-12-01T00:33:56.702Z,25.54
2022-12-01T00:34:11.087Z,25.53
2022-12-01T00:34:16.692Z,25.69
2022-12-01T00:34:26.692Z,25.61
2022-12-01T00:34:36.701Z,25.60
2022-12-01T00:34:46.703Z,25.60
2022-12-01T00:34:56.694Z,25.58
2022-12-01T00:35:06.693Z,25.55
2022-12-01T00:35:16.704Z,25.52
2022-12-01T00:35:26.710Z,25.54
2022-12-01T00:35:36.693Z,25.50
2022-12-01T00:35:46.695Z,25.51
2022-12-01T00:35:56.694Z,25.52
2022-12-01T00:36:06.696Z,25.48
2022-12-01T00:36:16.713Z,25.48
2022-12-01T00:36:26.724Z,25.49
2022-12-01T00:36:36.693Z,25.50
2022-12-01T00:36:46.685Z,25.51
2022-12-01T00:36:56.686Z,25.49
2022-12-01T00:37:06.686Z,25.48
2022-12-01T00:37:16.684Z,25.46
2022-12-01T00:37:26.685Z,25.43
2022-12-01T00:37:36.684Z,25.44
2022-12-01T00:37:46.683Z,25.46
2022-12-01T00:37:56.704Z,25.50
2022-12-01T00:38:06.688Z,25.49
2022-12-01T00:38:16.674Z,25.46
2022-12-01T00:38:26.683Z,25.45
2022-12-01T00:38:36.685Z,25.44
2022-12-01T00:38:46.689Z,25.43
2022-12-01T00:38:56.686Z,25.42
2022-12-01T00:39:06.685Z,25.42
2022-12-01T00:39:16.683Z,25.42
2022-12-01T00:39:26.686Z,25.42
2022-12-01T00:39:36.674Z,25.42
2022-12-01T00:39:46.840Z,25.42
2022-12-01T00:39:56.674Z,25.42
2022-12-01T00:40:06.674Z,25.41
2022-12-01T00:40:16.674Z,25.45
2022-12-01T00:40:26.675Z,25.48
2022-12-01T00:40:38.615Z,25.57
2022-12-01T00:40:46.676Z,25.61
2022-12-01T00:40:56.675Z,25.56
2022-12-01T00:41:06.674Z,25.63
2022-12-01T00:41:16.674Z,25.65
2022-12-01T00:41:28.189Z,25.68
2022-12-01T00:41:36.679Z,25.70
2022-12-01T00:41:46.676Z,25.63
2022-12-01T00:41:56.676Z,25.63
2022-12-01T00:42:12.887Z,25.60
2022-12-01T00:42:16.666Z,25.78
2022-12-01T00:42:26.678Z,25.66
2022-12-01T00:42:36.676Z,25.66
2022-12-01T00:42:46.666Z,25.64
2022-12-01T00:42:56.665Z,25.62
2022-12-01T00:43:06.685Z,25.61
2022-12-01T00:43:16.671Z,25.63
2022-12-01T00:43:26.665Z,25.60
2022-12-01T00:43:36.657Z,25.61
2022-12-01T00:43:46.668Z,25.63
2022-12-01T00:43:56.665Z,25.61
2022-12-01T00:44:06.667Z,25.63
2022-12-01T00:44:16.664Z,25.66
2022-12-01T00:44:26.664Z,25.64
2022-12-01T00:44:36.660Z,25.64
2022-12-01T00:44:46.658Z,25.67
2022-12-01T00:44:56.656Z,25.64
2022-12-01T00:45:06.659Z,25.65
2022-12-01T00:45:16.656Z,25.66
2022-12-01T00:45:26.665Z,25.66
2022-12-01T00:45:36.703Z,25.71
2022-12-01T00:45:46.692Z,25.70
2022-12-01T00:45:56.708Z,25.72
2022-12-01T00:46:06.728Z,25.71
2022-12-01T00:46:16.795Z,25.76
2022-12-01T00:46:26.736Z,25.78
2022-12-01T00:46:36.666Z,25.75
2022-12-01T00:46:46.657Z,25.74
2022-12-01T00:46:56.656Z,25.73
2022-12-01T00:47:06.649Z,25.71
2022-12-01T00:47:16.649Z,25.69
2022-12-01T00:47:26.648Z,25.71
2022-12-01T00:47:36.647Z,25.73
2022-12-01T00:47:46.657Z,25.76
2022-12-01T00:47:56.647Z,25.75
2022-12-01T00:48:06.646Z,25.72
2022-12-01T00:48:16.683Z,25.71
2022-12-01T00:48:26.658Z,25.72
2022-12-01T00:48:36.648Z,25.70
2022-12-01T00:48:46.646Z,25.69
2022-12-01T00:48:56.649Z,25.67
2022-12-01T00:49:06.658Z,25.64
2022-12-01T00:49:16.648Z,25.61
2022-12-01T00:49:26.646Z,25.61
2022-12-01T00:49:36.647Z,25.60
2022-12-01T00:49:46.977Z,25.64
2022-12-01T00:49:56.651Z,25.66
2022-12-01T00:50:06.648Z,25.64
2022-12-01T00:50:16.646Z,25.61
2022-12-01T00:50:26.649Z,25.61
2022-12-01T00:50:38.587Z,25.57
2022-12-01T00:50:46.647Z,25.62
2022-12-01T00:50:56.647Z,25.56
2022-12-01T00:51:06.650Z,25.58
2022-12-01T00:51:16.641Z,25.59
2022-12-01T00:51:28.576Z,25.61
2022-12-01T00:51:36.638Z,25.66
2022-12-01T00:51:46.658Z,25.58
2022-12-01T00:51:56.735Z,25.59
2022-12-01T00:52:06.639Z,25.61
2022-12-01T00:52:16.639Z,25.64
2022-12-01T00:52:26.638Z,25.61
2022-12-01T00:52:36.638Z,25.60
2022-12-01T00:52:46.639Z,25.57
2022-12-01T00:52:56.629Z,25.57
2022-12-01T00:53:06.638Z,25.54
2022-12-01T00:53:16.641Z,25.55
2022-12-01T00:53:26.648Z,25.57
2022-12-01T00:53:36.640Z,25.56
2022-12-01T00:53:46.638Z,25.57
2022-12-01T00:53:56.638Z,25.57
2022-12-01T00:54:06.639Z,25.58
2022-12-01T00:54:16.640Z,25.57
2022-12-01T00:54:26.639Z,25.56
2022-12-01T00:54:36.640Z,25.56
2022-12-01T00:54:46.635Z,25.57
2022-12-01T00:54:56.637Z,25.54
2022-12-01T00:55:06.629Z,25.57
2022-12-01T00:55:16.629Z,25.55
2022-12-01T00:55:26.629Z,25.54
2022-12-01T00:55:36.629Z,25.55
2022-12-01T00:55:46.630Z,25.55
2022-12-01T00:55:56.628Z,25.57
2022-12-01T00:56:06.640Z,25.61
2022-12-01T00:56:16.633Z,25.62
2022-12-01T00:56:26.668Z,25.59
2022-12-01T00:56:36.630Z,25.60
2022-12-01T00:56:46.630Z,25.58
2022-12-01T00:56:56.741Z,25.58
2022-12-01T00:57:06.621Z,25.57
2022-12-01T00:57:16.630Z,25.57
2022-12-01T00:57:26.619Z,25.57
2022-12-01T00:57:36.621Z,25.55
2022-12-01T00:57:46.650Z,25.55
2022-12-01T00:57:57.045Z,25.58
2022-12-01T00:58:06.621Z,25.58
2022-12-01T00:58:16.634Z,25.59
2022-12-01T00:58:26.631Z,25.60
2022-12-01T00:58:36.629Z,25.59
2022-12-01T00:58:46.622Z,25.58
2022-12-01T00:58:56.631Z,25.57
2022-12-01T00:59:06.619Z,25.56
2022-12-01T00:59:16.622Z,25.57
2022-12-01T00:59:26.620Z,25.57
2022-12-01T00:59:36.620Z,25.58
2022-12-01T00:59:47.311Z,25.60
2022-12-01T00:59:56.622Z,25.64
2022-12-01T01:00:06.612Z,25.61
2022-12-01T01:00:16.611Z,25.64
2022-12-01T01:00:26.614Z,25.63
2022-12-01T01:00:38.559Z,25.65
2022-12-01T01:00:46.612Z,25.71
2022-12-01T01:00:58.641Z,25.67
2022-12-01T01:01:06.639Z,25.76
2022-12-01T01:01:16.670Z,25.67
2022-12-01T01:01:28.593Z,25.72
2022-12-01T01:01:36.653Z,25.78
2022-12-01T01:01:46.693Z,25.72
2022-12-01T01:01:56.662Z,25.73
2022-12-01T01:02:06.754Z,25.70
2022-12-01T01:02:16.649Z,25.73
2022-12-01T01:02:26.689Z,25.71
2022-12-01T01:02:36.671Z,25.72
2022-12-01T01:02:46.649Z,25.69
2022-12-01T01:02:56.665Z,25.68
2022-12-01T01:03:06.620Z,25.67
2022-12-01T01:03:16.611Z,25.69
2022-12-01T01:03:26.613Z,25.67
2022-12-01T01:03:36.611Z,25.63
2022-12-01T01:03:46.632Z,25.64
2022-12-01T01:03:56.616Z,25.65
2022-12-01T01:04:06.601Z,25.64
2022-12-01T01:04:16.611Z,25.67
2022-12-01T01:04:26.604Z,25.67
2022-12-01T01:04:36.612Z,25.67
2022-12-01T01:04:46.607Z,25.67
2022-12-01T01:04:56.612Z,25.70
2022-12-01T01:05:06.612Z,25.71
2022-12-01T01:05:16.612Z,25.71
2022-12-01T01:05:26.615Z,25.70
2022-12-01T01:05:36.603Z,25.71
2022-12-01T01:05:46.601Z,25.70
2022-12-01T01:05:56.602Z,25.68
2022-12-01T01:06:06.606Z,25.68
2022-12-01T01:06:16.619Z,25.67
2022-12-01T01:06:26.613Z,25.68
2022-12-01T01:06:36.603Z,25.68
2022-12-01T01:06:46.603Z,25.68
2022-12-01T01:06:56.604Z,25.67
2022-12-01T01:07:06.594Z,25.67
2022-12-01T01:07:16.634Z,25.66
2022-12-01T01:07:26.618Z,25.65
2022-12-01T01:07:36.621Z,25.65
2022-12-01T01:07:46.641Z,25.67
2022-12-01T01:07:56.696Z,25.63
2022-12-01T01:08:06.673Z,25.65
2022-12-01T01:08:16.593Z,25.68
2022-12-01T01:08:26.595Z,25.69
2022-12-01T01:08:36.593Z,25.72
2022-12-01T01:08:46.594Z,25.71
2022-12-01T01:08:56.612Z,25.71
2022-12-01T01:09:06.598Z,25.69
2022-12-01T01:09:16.605Z,25.69
2022-12-01T01:09:26.594Z,25.69
2022-12-01T01:09:36.593Z,25.68
2022-12-01T01:09:46.792Z,25.66
2022-12-01T01:09:56.594Z,25.68
2022-12-01T01:10:06.594Z,25.66
2022-12-01T01:10:16.588Z,25.63
2022-12-01T01:10:26.584Z,25.61
2022-12-01T01:10:38.533Z,25.62
2022-12-01T01:10:46.588Z,25.68
2022-12-01T01:10:56.587Z,25.62
2022-12-01T01:11:06.583Z,25.62
2022-12-01T01:11:16.584Z,25.62
2022-12-01T01:11:28.522Z,25.62
2022-12-01T01:11:36.584Z,25.69
2022-12-01T01:11:46.584Z,25.60
2022-12-01T01:11:56.584Z,25.60
2022-12-01T01:12:06.586Z,25.63
2022-12-01T01:12:16.584Z,25.60
2022-12-01T01:12:26.584Z,25.61
2022-12-01T01:12:36.586Z,25.61
2022-12-01T01:12:46.659Z,25.63
2022-12-01T01:12:56.595Z,25.65
2022-12-01T01:13:06.576Z,25.65
2022-12-01T01:13:16.586Z,25.65
2022-12-01T01:13:26.575Z,25.63
2022-12-01T01:13:36.574Z,25.64
2022-12-01T01:13:46.576Z,25.62
2022-12-01T01:13:56.585Z,25.61
2022-12-01T01:14:06.605Z,25.62
2022-12-01T01:14:16.577Z,25.61
2022-12-01T01:14:26.574Z,25.60
2022-12-01T01:14:36.576Z,25.61
2022-12-01T01:14:46.574Z,25.61
2022-12-01T01:14:56.584Z,25.62
2022-12-01T01:15:06.576Z,25.63
2022-12-01T01:15:16.565Z,25.61
2022-12-01T01:15:26.570Z,25.62
2022-12-01T01:15:36.581Z,25.60
2022-12-01T01:15:46.575Z,25.62
2022-12-01T01:15:56.566Z,25.64
2022-12-01T01:16:06.566Z,25.62
2022-12-01T01:16:16.641Z,25.63
2022-12-01T01:16:26.593Z,25.63
2022-12-01T01:16:36.619Z,25.62
2022-12-01T01:16:46.576Z,25.64
2022-12-01T01:16:56.624Z,25.63
2022-12-01T01:17:06.682Z,25.65
2022-12-01T01:17:16.570Z,25.66
2022-12-01T01:17:26.566Z,25.64
2022-12-01T01:17:36.575Z,25.63
2022-12-01T01:17:46.568Z,25.61
2022-12-01T01:17:56.566Z,25.61
2022-12-01T01:18:06.566Z,25.61
2022-12-01T01:18:16.556Z,25.63
2022-12-01T01:18:26.567Z,25.64
2022-12-01T01:18:36.566Z,25.64
2022-12-01T01:18:46.558Z,25.64
2022-12-01T01:18:56.566Z,25.62
2022-12-01T01:19:06.557Z,25.63
2022-12-01T01:19:16.707Z,25.63
2022-12-01T01:19:26.556Z,25.63
2022-12-01T01:19:36.558Z,25.60
2022-12-01T01:19:46.920Z,25.60
2022-12-01T01:19:56.565Z,25.62
2022-12-01T01:20:06.557Z,25.60
2022-12-01T01:20:16.557Z,25.61
2022-12-01T01:20:26.566Z,25.60
2022-12-01T01:20:36.759Z,25.63
2022-12-01T01:20:46.557Z,25.63
2022-12-01T01:20:56.566Z,25.62
2022-12-01T01:21:06.557Z,25.63
2022-12-01T01:21:16.557Z,25.63
2022-12-01T01:21:27.495Z,25.64
2022-12-01T01:21:36.560Z,25.65
2022-12-01T01:21:46.568Z,25.63
2022-12-01T01:21:56.557Z,25.62
2022-12-01T01:22:06.547Z,25.63
2022-12-01T01:22:16.561Z,25.61
2022-12-01T01:22:26.548Z,25.63
2022-12-01T01:22:36.548Z,25.62
2022-12-01T01:22:46.558Z,25.63
2022-12-01T01:22:56.567Z,25.62
2022-12-01T01:23:06.548Z,25.62
2022-12-01T01:23:16.547Z,25.63
2022-12-01T01:23:26.550Z,25.63
2022-12-01T01:23:36.547Z,25.62
2022-12-01T01:23:46.538Z,25.63
2022-12-01T01:23:56.547Z,25.62
2022-12-01T01:24:06.548Z,25.64
2022-12-01T01:24:16.548Z,25.65
2022-12-01T01:24:26.558Z,25.66
2022-12-01T01:24:36.547Z,25.67
2022-12-01T01:24:46.548Z,25.68
2022-12-01T01:24:56.539Z,25.69
2022-12-01T01:25:06.548Z,25.72
2022-12-01T01:25:16.548Z,25.74
2022-12-01T01:25:26.539Z,25.76
2022-12-01T01:25:36.539Z,25.79
2022-12-01T01:25:46.538Z,25.78
2022-12-01T01:25:56.548Z,25.80
2022-12-01T01:26:06.538Z,25.76
2022-12-01T01:26:16.539Z,25.76
2022-12-01T01:26:26.538Z,25.75
2022-12-01T01:26:36.559Z,25.78
2022-12-01T01:26:46.540Z,25.76
2022-12-01T01:26:56.545Z,25.73
2022-12-01T01:27:06.541Z,25.71
2022-12-01T01:27:16.549Z,25.72
2022-12-01T01:27:26.577Z,25.73
2022-12-01T01:27:36.529Z,25.73
2022-12-01T01:27:46.540Z,25.76
2022-12-01T01:27:56.539Z,25.82
2022-12-01T01:28:06.539Z,25.81
2022-12-01T01:28:16.545Z,25.77
2022-12-01T01:28:26.541Z,25.74
2022-12-01T01:28:36.531Z,25.74
2022-12-01T01:28:46.531Z,25.72
2022-12-01T01:28:56.531Z,25.71
2022-12-01T01:29:06.529Z,25.74
2022-12-01T01:29:16.530Z,25.71
2022-12-01T01:29:26.549Z,25.71
2022-12-01T01:29:36.519Z,25.72
2022-12-01T01:29:46.832Z,25.72
2022-12-01T01:29:56.522Z,25.75
2022-12-01T01:30:06.530Z,25.73
2022-12-01T01:30:16.528Z,25.72
2022-12-01T01:30:26.648Z,25.74
2022-12-01T01:30:38.504Z,25.77
2022-12-01T01:30:46.737Z,25.82
2022-12-01T01:30:56.573Z,25.80
2022-12-01T01:31:06.668Z,25.79
2022-12-01T01:31:16.555Z,25.81
2022-12-01T01:31:26.523Z,25.82
2022-12-01T01:31:36.524Z,25.81
2022-12-01T01:31:46.520Z,25.80
2022-12-01T01:31:56.521Z,25.78
2022-12-01T01:32:06.512Z,25.78
2022-12-01T01:32:16.523Z,25.80
2022-12-01T01:32:26.520Z,25.80
2022-12-01T01:32:36.511Z,25.85
2022-12-01T01:32:46.519Z,25.82
2022-12-01T01:32:56.520Z,25.83
2022-12-01T01:33:06.550Z,25.85
2022-12-01T01:33:16.521Z,25.89
2022-12-01T01:33:26.520Z,25.88
2022-12-01T01:33:36.520Z,25.90
2022-12-01T01:33:46.514Z,25.88
2022-12-01T01:33:56.522Z,25.86
2022-12-01T01:34:06.522Z,25.86
2022-12-01T01:34:16.512Z,25.87
2022-12-01T01:34:26.511Z,25.85
2022-12-01T01:34:36.532Z,25.86
2022-12-01T01:34:46.511Z,25.84
2022-12-01T01:34:56.511Z,25.84
2022-12-01T01:35:06.514Z,25.82
2022-12-01T01:35:16.521Z,25.78
2022-12-01T01:35:26.535Z,25.77
2022-12-01T01:35:36.512Z,25.75
2022-12-01T01:35:46.511Z,25.75
2022-12-01T01:35:56.511Z,25.73
2022-12-01T01:36:06.511Z,25.74
2022-12-01T01:36:16.512Z,25.74
2022-12-01T01:36:26.507Z,25.73
2022-12-01T01:36:36.502Z,25.73
2022-12-01T01:36:46.511Z,25.73
2022-12-01T01:36:56.502Z,25.74
2022-12-01T01:37:06.502Z,25.73
2022-12-01T01:37:16.501Z,25.71
2022-12-01T01:37:26.504Z,25.71
2022-12-01T01:37:36.504Z,25.72
2022-12-01T01:37:46.504Z,25.69
2022-12-01T01:37:56.504Z,25.72
2022-12-01T01:38:06.511Z,25.73
2022-12-01T01:38:16.533Z,25.72
2022-12-01T01:38:26.505Z,25.73
2022-12-01T01:38:36.523Z,25.73
2022-12-01T01:38:46.500Z,25.74
2022-12-01T01:38:56.505Z,25.75
2022-12-01T01:39:06.502Z,25.72
2022-12-01T01:39:16.503Z,25.73
2022-12-01T01:39:26.502Z,25.73
2022-12-01T01:39:36.507Z,25.73
2022-12-01T01:39:46.892Z,25.73
2022-12-01T01:39:56.493Z,25.72
2022-12-01T01:40:06.494Z,25.71
2022-12-01T01:40:16.493Z,25.73
2022-12-01T01:40:26.845Z,25.72
2022-12-01T01:40:36.692Z,25.71
2022-12-01T01:40:46.493Z,25.68
2022-12-01T01:40:56.494Z,25.68
2022-12-01T01:41:06.493Z,25.66
2022-12-01T01:41:16.492Z,25.64
2022-12-01T01:41:26.803Z,25.64
2022-12-01T01:41:36.493Z,25.64
2022-12-01T01:41:46.493Z,25.63
2022-12-01T01:41:56.495Z,25.62
2022-12-01T01:42:06.494Z,25.61
2022-12-01T01:42:16.494Z,25.62
2022-12-01T01:42:26.493Z,25.64
2022-12-01T01:42:36.493Z,25.63
2022-12-01T01:42:46.484Z,25.62
2022-12-01T01:42:56.485Z,25.63
2022-12-01T01:43:06.495Z,25.65
2022-12-01T01:43:16.483Z,25.63
2022-12-01T01:43:26.494Z,25.67
2022-12-01T01:43:36.484Z,25.67
2022-12-01T01:43:46.483Z,25.68
2022-12-01T01:43:56.483Z,25.66
2022-12-01T01:44:06.484Z,25.62
2022-12-01T01:44:16.477Z,25.63
2022-12-01T01:44:26.473Z,25.64
2022-12-01T01:44:36.476Z,25.62
2022-12-01T01:44:46.474Z,25.64
2022-12-01T01:44:56.494Z,25.63
2022-12-01T01:45:06.477Z,25.66
2022-12-01T01:45:16.474Z,25.63
2022-12-01T01:45:26.475Z,25.60
2022-12-01T01:45:36.497Z,25.59
2022-12-01T01:45:46.512Z,25.61
2022-12-01T01:45:56.515Z,25.59
2022-12-01T01:46:06.520Z,25.60
2022-12-01T01:46:16.665Z,25.59
2022-12-01T01:46:26.521Z,25.61
2022-12-01T01:46:36.475Z,25.60
2022-12-01T01:46:46.464Z,25.61
2022-12-01T01:46:56.464Z,25.62
2022-12-01T01:47:06.475Z,25.61
2022-12-01T01:47:16.475Z,25.62
2022-12-01T01:47:26.475Z,25.61
2022-12-01T01:47:36.474Z,25.63
2022-12-01T01:47:46.476Z,25.64
2022-12-01T01:47:56.480Z,25.64
2022-12-01T01:48:06.464Z,25.65
2022-12-01T01:48:16.474Z,25.65
2022-12-01T01:48:26.467Z,25.66
2022-12-01T01:48:36.496Z,25.65
2022-12-01T01:48:46.465Z,25.64
2022-12-01T01:48:56.465Z,25.64
2022-12-01T01:49:06.466Z,25.68
2022-12-01T01:49:16.465Z,25.66
2022-12-01T01:49:26.467Z,25.68
2022-12-01T01:49:36.468Z,25.67
2022-12-01T01:49:47.008Z,25.69
2022-12-01T01:49:58.435Z,25.70
2022-12-01T01:50:06.479Z,25.71
2022-12-01T01:50:16.465Z,25.67
2022-12-01T01:50:26.465Z,25.70
2022-12-01T01:50:37.905Z,25.72
2022-12-01T01:50:46.466Z,25.73
2022-12-01T01:50:56.466Z,25.64
2022-12-01T01:51:06.466Z,25.68
2022-12-01T01:51:16.467Z,25.68
2022-12-01T01:51:26.926Z,25.67
2022-12-01T01:51:36.666Z,25.68
2022-12-01T01:51:46.456Z,25.68
2022-12-01T01:51:56.456Z,25.66
2022-12-01T01:52:06.455Z,25.67
2022-12-01T01:52:16.456Z,25.70
2022-12-01T01:52:26.457Z,25.69
2022-12-01T01:52:36.455Z,25.70
2022-12-01T01:52:46.446Z,25.69
2022-12-01T01:52:56.465Z,25.70
2022-12-01T01:53:06.456Z,25.69
2022-12-01T01:53:16.446Z,25.72
2022-12-01T01:53:26.446Z,25.71
2022-12-01T01:53:36.446Z,25.70
2022-12-01T01:53:46.476Z,25.69
2022-12-01T01:53:56.457Z,25.71
2022-12-01T01:54:06.458Z,25.69
2022-12-01T01:54:16.458Z,25.69
2022-12-01T01:54:26.457Z,25.73
2022-12-01T01:54:36.449Z,25.71
2022-12-01T01:54:46.446Z,25.74
2022-12-01T01:54:56.447Z,25.75
2022-12-01T01:55:06.457Z,25.74
2022-12-01T01:55:16.446Z,25.74
2022-12-01T01:55:26.447Z,25.72
2022-12-01T01:55:36.447Z,25.74
2022-12-01T01:55:46.450Z,25.73
2022-12-01T01:55:56.447Z,25.71
2022-12-01T01:56:06.447Z,25.73
2022-12-01T01:56:16.478Z,25.75
2022-12-01T01:56:26.447Z,25.72
2022-12-01T01:56:36.437Z,25.72
2022-12-01T01:56:46.440Z,25.72
2022-12-01T01:56:56.440Z,25.73
2022-12-01T01:57:06.439Z,25.73
2022-12-01T01:57:16.438Z,25.71
2022-12-01T01:57:26.438Z,25.68
2022-12-01T01:57:36.448Z,25.68
2022-12-01T01:57:46.438Z,25.69
2022-12-01T01:57:56.437Z,25.68
2022-12-01T01:58:06.436Z,25.66
2022-12-01T01:58:16.438Z,25.67
2022-12-01T01:58:26.437Z,25.69
2022-12-01T01:58:36.429Z,25.71
2022-12-01T01:58:46.442Z,25.68
2022-12-01T01:58:56.468Z,25.67
2022-12-01T01:59:06.442Z,25.67
2022-12-01T01:59:16.448Z,25.67
2022-12-01T01:59:26.440Z,25.68
2022-12-01T01:59:36.437Z,25.68
2022-12-01T01:59:46.832Z,25.68
2022-12-01T01:59:56.440Z,25.69
2022-12-01T02:00:06.428Z,25.67
2022-12-01T02:00:16.458Z,25.65
2022-12-01T02:00:26.431Z,25.65
2022-12-01T02:00:38.368Z,25.68
2022-12-01T02:00:46.426Z,25.71
2022-12-01T02:00:56.751Z,25.65
2022-12-01T02:01:06.475Z,25.64
2022-12-01T02:01:16.480Z,25.66
2022-12-01T02:01:26.481Z,25.68
2022-12-01T02:01:36.457Z,25.68
2022-12-01T02:01:46.486Z,25.67
2022-12-01T02:01:56.428Z,25.67
2022-12-01T02:02:06.565Z,25.68
2022-12-01T02:02:16.476Z,25.68
2022-12-01T02:02:26.459Z,25.67
2022-12-01T02:02:36.492Z,25.70
2022-12-01T02:02:46.541Z,25.71
2022-12-01T02:02:56.528Z,25.74
2022-12-01T02:03:06.429Z,25.76
2022-12-01T02:03:16.419Z,25.72
2022-12-01T02:03:26.432Z,25.72
2022-12-01T02:03:36.429Z,25.75
2022-12-01T02:03:46.429Z,25.75
2022-12-01T02:03:56.427Z,25.76
2022-12-01T02:04:06.430Z,25.75
2022-12-01T02:04:16.420Z,25.75
2022-12-01T02:04:26.423Z,25.74
2022-12-01T02:04:36.420Z,25.75
2022-12-01T02:04:46.421Z,25.76
2022-12-01T02:04:56.427Z,25.76
2022-12-01T02:05:06.423Z,25.74
2022-12-01T02:05:16.430Z,25.74
2022-12-01T02:05:26.419Z,25.74
2022-12-01T02:05:36.410Z,25.72
2022-12-01T02:05:46.412Z,25.73
2022-12-01T02:05:59.382Z,25.73
2022-12-01T02:06:06.409Z,25.85
2022-12-01T02:06:16.451Z,25.78
2022-12-01T02:06:26.423Z,25.77
2022-12-01T02:06:36.421Z,25.74
2022-12-01T02:06:46.420Z,25.73
2022-12-01T02:06:56.411Z,25.74
2022-12-01T02:07:06.410Z,25.74
2022-12-01T02:07:16.411Z,25.76
2022-12-01T02:07:26.454Z,25.77
2022-12-01T02:07:36.440Z,25.74
2022-12-01T02:07:46.443Z,25.74
2022-12-01T02:07:56.478Z,25.75
2022-12-01T02:08:06.463Z,25.75
2022-12-01T02:08:16.410Z,25.73
2022-12-01T02:08:26.411Z,25.73
2022-12-01T02:08:36.411Z,25.71
2022-12-01T02:08:46.411Z,25.72